createdAt,value
2023-04-01T00:00:37.873Z,990.45
2023-04-01T00:01:37.912Z,990.51
2023-04-01T00:02:38.044Z,990.46
2023-04-01T00:03:38.386Z,990.40
2023-04-01T00:04:38.037Z,990.41
2023-04-01T00:05:38.015Z,990.42
2023-04-01T00:06:38.042Z,990.42
2023-04-01T00:07:38.083Z,990.38
2023-04-01T00:08:38.101Z,990.41
2023-04-01T00:09:38.134Z,990.45
2023-04-01T00:10:38.469Z,990.40
2023-04-01T00:11:38.198Z,990.39
2023-04-01T00:12:38.264Z,990.41
2023-04-01T00:13:38.255Z,990.36
2023-04-01T00:14:38.371Z,990.41
2023-04-01T00:15:38.308Z,990.44
2023-04-01T00:16:38.432Z,990.38
2023-04-01T00:17:38.716Z,990.42
2023-04-01T00:18:38.408Z,990.47
2023-04-01T00:19:38.428Z,990.43
2023-04-01T00:20:38.460Z,990.42
2023-04-01T00:21:38.499Z,990.44
2023-04-01T00:22:38.518Z,990.44
2023-04-01T00:24:38.891Z,990.40
2023-04-01T00:25:38.606Z,990.39
2023-04-01T00:26:38.646Z,990.40
2023-04-01T00:27:38.665Z,990.41
2023-04-01T00:28:38.719Z,990.44
2023-04-01T00:29:38.940Z,990.35
2023-04-01T00:30:38.753Z,990.47
2023-04-01T00:31:39.115Z,990.46
2023-04-01T00:32:38.924Z,990.38
2023-04-01T00:33:38.846Z,990.42
2023-04-01T00:34:38.893Z,990.36
2023-04-01T00:35:38.907Z,990.35
2023-04-01T00:36:38.975Z,990.37
2023-04-01T00:37:38.958Z,990.38
2023-04-01T00:38:39.363Z,990.38
2023-04-01T00:39:39.019Z,990.28
2023-04-01T00:40:39.060Z,990.37
2023-04-01T00:41:39.083Z,990.35
2023-04-01T00:42:39.111Z,990.41
2023-04-01T00:43:39.146Z,990.37
2023-04-01T00:44:39.205Z,990.38
2023-04-01T00:45:39.520Z,990.34
2023-04-01T00:46:39.248Z,990.38
2023-04-01T00:48:39.285Z,990.35
2023-04-01T00:50:39.362Z,990.34
2023-04-01T00:51:39.672Z,990.29
2023-04-01T00:52:39.410Z,990.32
2023-04-01T00:53:39.444Z,990.33
2023-04-01T00:54:39.461Z,990.37
2023-04-01T00:55:39.503Z,990.28
2023-04-01T00:56:39.625Z,990.31
2023-04-01T00:57:39.564Z,990.32
2023-04-01T00:58:39.883Z,990.31
2023-04-01T00:59:39.672Z,990.32
2023-04-01T01:00:39.679Z,990.32
2023-04-01T01:01:39.668Z,990.37
2023-04-01T01:02:39.778Z,990.33
2023-04-01T01:03:39.728Z,990.29
2023-04-01T01:04:40.073Z,990.39
2023-04-01T01:05:48.895Z,990.32
2023-04-01T01:06:39.826Z,990.34
2023-04-01T01:07:39.845Z,990.33
2023-04-01T01:08:39.919Z,990.36
2023-04-01T01:09:39.908Z,990.39
2023-04-01T01:10:40.236Z,990.31
2023-04-01T01:11:43.794Z,990.31
2023-04-01T01:12:40.146Z,990.28
2023-04-01T01:13:41.258Z,990.24
2023-04-01T01:14:40.049Z,990.26
2023-04-01T01:15:40.103Z,990.29
2023-04-01T01:16:40.449Z,990.27
2023-04-01T01:17:40.222Z,990.19
2023-04-01T01:18:40.169Z,990.24
2023-04-01T01:19:40.191Z,990.25
2023-04-01T01:20:40.222Z,990.27
2023-04-01T01:21:40.251Z,990.20
2023-04-01T01:22:40.286Z,990.23
2023-04-01T01:23:40.623Z,990.18
2023-04-01T01:24:40.347Z,990.17
2023-04-01T01:25:40.381Z,990.21
2023-04-01T01:26:40.411Z,990.17
2023-04-01T01:27:40.429Z,990.22
2023-04-01T01:28:40.460Z,990.19
2023-04-01T01:29:40.622Z,990.20
2023-04-01T01:30:40.834Z,990.14
2023-04-01T01:31:40.553Z,990.19
2023-04-01T01:32:40.614Z,990.16
2023-04-01T01:33:40.603Z,990.17
2023-04-01T01:34:40.637Z,990.15
2023-04-01T01:35:40.729Z,990.14
2023-04-01T01:36:40.702Z,990.17
2023-04-01T01:37:41.020Z,990.16
2023-04-01T01:38:40.755Z,990.17
2023-04-01T01:40:40.811Z,990.13
2023-04-01T01:41:40.840Z,990.13
2023-04-01T01:42:40.880Z,990.17
2023-04-01T01:43:40.907Z,990.14
2023-04-01T01:44:41.227Z,990.16
2023-04-01T01:46:40.984Z,990.05
2023-04-01T01:47:41.030Z,990.15
2023-04-01T01:48:41.082Z,990.13
2023-04-01T01:49:41.072Z,990.16
2023-04-01T01:50:41.107Z,990.15
2023-04-01T01:51:41.434Z,990.10
2023-04-01T01:52:41.160Z,990.12
2023-04-01T01:53:41.191Z,990.20
2023-04-01T01:54:41.222Z,990.12
2023-04-01T01:55:41.246Z,990.13
2023-04-01T01:56:41.293Z,990.17
2023-04-01T01:57:41.313Z,990.11
2023-04-01T01:58:41.644Z,990.20
2023-04-01T01:59:41.370Z,990.10
2023-04-01T02:00:41.391Z,990.17
2023-04-01T02:01:41.479Z,990.13
2023-04-01T02:02:41.515Z,990.18
2023-04-01T02:03:41.480Z,990.16
2023-04-01T02:04:41.573Z,990.11
2023-04-01T02:05:41.842Z,990.16
2023-04-01T02:06:41.567Z,990.14
2023-04-01T02:07:41.606Z,990.12
2023-04-01T02:09:41.659Z,990.12
2023-04-01T02:10:41.736Z,990.09
2023-04-01T02:11:41.858Z,990.18
2023-04-01T02:12:42.044Z,990.19
2023-04-01T02:13:41.787Z,990.12
2023-04-01T02:15:41.872Z,990.09
2023-04-01T02:16:41.860Z,990.16
2023-04-01T02:17:41.918Z,990.10
2023-04-01T02:18:41.917Z,990.00
2023-04-01T02:19:42.256Z,990.04
2023-04-01T02:20:42.094Z,990.09
2023-04-01T02:21:42.008Z,990.08
2023-04-01T02:22:42.042Z,990.07
2023-04-01T02:23:42.072Z,990.03
2023-04-01T02:24:42.105Z,990.13
2023-04-01T02:25:42.125Z,990.11
2023-04-01T02:26:42.470Z,990.06
2023-04-01T02:27:42.182Z,990.10
2023-04-01T02:28:42.215Z,990.11
2023-04-01T02:29:42.246Z,990.11
2023-04-01T02:30:42.266Z,990.09
2023-04-01T02:31:42.333Z,990.08
2023-04-01T02:32:42.772Z,990.06
2023-04-01T02:33:42.760Z,990.05
2023-04-01T02:35:42.470Z,990.09
2023-04-01T02:36:42.460Z,990.11
2023-04-01T02:37:42.471Z,990.04
2023-04-01T02:39:42.536Z,990.14
2023-04-01T02:40:42.870Z,990.11
2023-04-01T02:41:42.587Z,990.13
2023-04-01T02:42:42.645Z,990.15
2023-04-01T02:43:42.758Z,990.15
2023-04-01T02:44:42.677Z,990.13
2023-04-01T02:45:42.709Z,990.10
2023-04-01T02:46:42.763Z,990.15
2023-04-01T02:47:43.100Z,990.12
2023-04-01T02:48:42.807Z,990.13
2023-04-01T02:49:42.825Z,990.16
2023-04-01T02:50:42.860Z,990.13
2023-04-01T02:51:42.887Z,990.19
2023-04-01T02:52:42.937Z,990.14
2023-04-01T02:53:43.309Z,990.13
2023-04-01T02:54:42.975Z,990.18
2023-04-01T02:55:43.009Z,990.20
2023-04-01T02:56:43.054Z,990.18
2023-04-01T02:57:43.062Z,990.16
2023-04-01T02:58:43.093Z,990.13
2023-04-01T02:59:43.429Z,990.18
2023-04-01T03:00:43.201Z,990.12
2023-04-01T03:01:43.183Z,990.14
2023-04-01T03:02:43.291Z,990.20
2023-04-01T03:03:43.241Z,990.24
2023-04-01T03:04:43.273Z,990.16
2023-04-01T03:05:43.612Z,990.13
2023-04-01T03:06:43.331Z,990.21
2023-04-01T03:07:43.376Z,990.18
2023-04-01T03:08:43.408Z,990.16
2023-04-01T03:10:43.468Z,990.14
2023-04-01T03:11:43.487Z,990.16
2023-04-01T03:12:43.822Z,990.23
2023-04-01T03:13:43.544Z,990.20
2023-04-01T03:14:43.565Z,990.17
2023-04-01T03:15:43.597Z,990.15
2023-04-01T03:16:43.669Z,990.20
2023-04-01T03:17:43.703Z,990.22
2023-04-01T03:18:43.692Z,990.22
2023-04-01T03:19:44.010Z,990.22
2023-04-01T03:20:43.738Z,990.25
2023-04-01T03:21:43.764Z,990.23
2023-04-01T03:22:43.800Z,990.23
2023-04-01T03:23:43.828Z,990.27
2023-04-01T03:24:43.872Z,990.28
2023-04-01T03:25:43.879Z,990.27
2023-04-01T03:26:44.217Z,990.30
2023-04-01T03:27:43.942Z,990.21
2023-04-01T03:28:43.971Z,990.31
2023-04-01T03:29:44.011Z,990.32
2023-04-01T03:30:44.046Z,990.29
2023-04-01T03:31:44.075Z,990.33
2023-04-01T03:32:44.120Z,990.29
2023-04-01T03:33:44.413Z,990.33
2023-04-01T03:36:44.277Z,990.41
2023-04-01T03:37:44.232Z,990.41
2023-04-01T03:38:44.262Z,990.42
2023-04-01T03:39:44.788Z,990.49
2023-04-01T03:40:44.651Z,990.42
2023-04-01T03:41:44.343Z,990.40
2023-04-01T03:42:44.414Z,990.39
2023-04-01T03:43:44.414Z,990.39
2023-04-01T03:44:44.434Z,990.47
2023-04-01T03:45:44.464Z,990.41
2023-04-01T03:46:44.521Z,990.47
2023-04-01T03:47:44.946Z,990.43
2023-04-01T03:48:44.844Z,990.47
2023-04-01T03:49:44.579Z,990.41
2023-04-01T03:50:44.611Z,990.45
2023-04-01T03:51:44.808Z,990.47
2023-04-01T03:52:44.669Z,990.47
2023-04-01T03:53:44.799Z,990.41
2023-04-01T03:54:45.131Z,990.44
2023-04-01T03:55:44.753Z,990.45
2023-04-01T03:56:44.838Z,990.46
2023-04-01T03:57:44.812Z,990.46
2023-04-01T03:58:44.849Z,990.49
2023-04-01T03:59:44.882Z,990.44
2023-04-01T04:00:44.904Z,990.48
2023-04-01T04:01:44.928Z,990.44
2023-04-01T04:02:45.052Z,990.51
2023-04-01T04:03:45.125Z,990.51
2023-04-01T04:04:45.197Z,990.46
2023-04-01T04:05:45.062Z,990.47
2023-04-01T04:06:45.083Z,990.49
2023-04-01T04:07:45.405Z,990.52
2023-04-01T04:08:45.138Z,990.48
2023-04-01T04:09:45.171Z,990.50
2023-04-01T04:10:45.195Z,990.52
2023-04-01T04:11:45.242Z,990.46
2023-04-01T04:12:45.273Z,990.48
2023-04-01T04:13:45.296Z,990.51
2023-04-01T04:14:45.610Z,990.53
2023-04-01T04:15:45.376Z,990.53
2023-04-01T04:16:45.362Z,990.53
2023-04-01T04:17:45.450Z,990.55
2023-04-01T04:18:45.440Z,990.51
2023-04-01T04:19:45.463Z,990.53
2023-04-01T04:20:45.890Z,990.54
2023-04-01T04:21:45.510Z,990.53
2023-04-01T04:22:45.540Z,990.56
2023-04-01T04:23:45.623Z,990.62
2023-04-01T04:24:45.601Z,990.57
2023-04-01T04:25:45.631Z,990.53
2023-04-01T04:26:45.973Z,990.56
2023-04-01T04:27:45.686Z,990.62
2023-04-01T04:29:45.768Z,990.54
2023-04-01T04:30:45.773Z,990.56
2023-04-01T04:31:45.932Z,990.59
2023-04-01T04:32:46.148Z,990.54
2023-04-01T04:33:45.855Z,990.56
2023-04-01T04:34:45.898Z,990.55
2023-04-01T04:35:46.034Z,990.54
2023-04-01T04:36:45.943Z,990.53
2023-04-01T04:37:46.025Z,990.52
2023-04-01T04:38:46.037Z,990.52
2023-04-01T04:40:46.371Z,990.53
2023-04-01T04:41:46.104Z,990.53
2023-04-01T04:42:46.121Z,990.57
2023-04-01T04:43:46.156Z,990.56
2023-04-01T04:44:46.175Z,990.59
2023-04-01T04:45:46.232Z,990.58
2023-04-01T04:46:46.688Z,990.58
2023-04-01T04:47:46.317Z,990.60
2023-04-01T04:48:46.296Z,990.67
2023-04-01T04:49:46.327Z,990.62
2023-04-01T04:50:46.354Z,990.63
2023-04-01T04:51:46.387Z,990.64
2023-04-01T04:52:46.409Z,990.57
2023-04-01T04:53:46.748Z,990.61
2023-04-01T04:54:46.486Z,990.68
2023-04-01T04:55:46.497Z,990.66
2023-04-01T04:56:46.746Z,990.66
2023-04-01T04:57:46.551Z,990.64
2023-04-01T04:58:46.597Z,990.64
2023-04-01T04:59:46.627Z,990.68
2023-04-01T05:00:46.952Z,990.72
2023-04-01T05:01:46.857Z,990.71
2023-04-01T05:02:46.835Z,990.76
2023-04-01T05:03:46.853Z,990.72
2023-04-01T05:04:46.756Z,990.77
2023-04-01T05:05:46.797Z,990.73
2023-04-01T05:06:46.813Z,990.74
2023-04-01T05:07:47.147Z,990.77
2023-04-01T05:08:46.872Z,990.74
2023-04-01T05:09:46.904Z,990.75
2023-04-01T05:10:47.089Z,990.81
2023-04-01T05:11:46.960Z,990.77
2023-04-01T05:12:46.988Z,990.76
2023-04-01T05:13:47.080Z,990.85
2023-04-01T05:14:47.354Z,990.85
2023-04-01T05:15:47.073Z,990.86
2023-04-01T05:16:47.160Z,990.81
2023-04-01T05:17:47.233Z,990.82
2023-04-01T05:18:47.162Z,990.85
2023-04-01T05:19:47.189Z,990.84
2023-04-01T05:20:47.219Z,990.86
2023-04-01T05:21:47.549Z,990.85
2023-04-01T05:22:47.277Z,990.84
2023-04-01T05:23:47.324Z,990.89
2023-04-01T05:24:47.330Z,990.91
2023-04-01T05:25:47.365Z,990.89
2023-04-01T05:26:47.464Z,990.87
2023-04-01T05:27:47.493Z,990.87
2023-04-01T05:28:47.757Z,990.93
2023-04-01T05:29:47.493Z,990.99
2023-04-01T05:30:47.652Z,990.93
2023-04-01T05:31:47.710Z,990.93
2023-04-01T05:32:47.612Z,990.94
2023-04-01T05:34:47.646Z,990.97
2023-04-01T05:35:47.988Z,990.96
2023-04-01T05:36:47.692Z,990.99
2023-04-01T05:37:47.725Z,990.92
2023-04-01T05:38:47.743Z,991.00
2023-04-01T05:39:47.988Z,990.97
2023-04-01T05:40:47.842Z,991.02
2023-04-01T05:41:48.419Z,991.02
2023-04-01T05:42:48.168Z,991.01
2023-04-01T05:43:47.939Z,991.00
2023-04-01T05:44:47.924Z,991.04
2023-04-01T05:45:47.961Z,991.06
2023-04-01T05:46:47.971Z,991.06
2023-04-01T05:47:48.199Z,991.03
2023-04-01T05:48:48.032Z,991.03
2023-04-01T05:49:48.414Z,991.06
2023-04-01T05:50:48.212Z,991.00
2023-04-01T05:51:48.142Z,991.03
2023-04-01T05:52:48.227Z,991.06
2023-04-01T05:53:48.174Z,991.04
2023-04-01T05:54:48.202Z,991.04
2023-04-01T05:55:48.271Z,991.04
2023-04-01T05:56:49.012Z,991.06
2023-04-01T05:57:48.289Z,991.10
2023-04-01T05:58:48.411Z,991.08
2023-04-01T05:59:48.349Z,991.06
2023-04-01T06:00:49.847Z,991.06
2023-04-01T06:01:48.414Z,991.08
2023-04-01T06:02:48.543Z,991.08
2023-04-01T06:03:49.059Z,991.11
2023-04-01T06:04:48.546Z,991.04
2023-04-01T06:05:48.610Z,991.09
2023-04-01T06:06:48.585Z,991.08
2023-04-01T06:07:48.620Z,991.08
2023-04-01T06:08:48.625Z,991.10
2023-04-01T06:09:48.936Z,991.12
2023-04-01T06:10:48.662Z,991.16
2023-04-01T06:11:48.694Z,991.13
2023-04-01T06:12:48.724Z,991.12
2023-04-01T06:13:48.803Z,991.13
2023-04-01T06:14:48.794Z,991.18
2023-04-01T06:15:49.159Z,991.22
2023-04-01T06:16:48.982Z,991.24
2023-04-01T06:17:48.942Z,991.24
2023-04-01T06:18:49.212Z,991.23
2023-04-01T06:19:48.926Z,991.25
2023-04-01T06:20:48.956Z,991.27
2023-04-01T06:21:49.284Z,991.30
2023-04-01T06:22:49.055Z,991.22
2023-04-01T06:23:49.046Z,991.26
2023-04-01T06:24:49.067Z,991.36
2023-04-01T06:25:49.099Z,991.25
2023-04-01T06:26:49.143Z,991.27
2023-04-01T06:27:49.174Z,991.27
2023-04-01T06:28:49.490Z,991.27
2023-04-01T06:29:49.212Z,991.28
2023-04-01T06:30:49.242Z,991.32
2023-04-01T06:31:49.391Z,991.38
2023-04-01T06:32:49.336Z,991.36
2023-04-01T06:33:49.352Z,991.37
2023-04-01T06:34:49.352Z,991.39
2023-04-01T06:35:49.857Z,991.32
2023-04-01T06:36:49.435Z,991.33
2023-04-01T06:37:49.446Z,991.35
2023-04-01T06:38:49.502Z,991.33
2023-04-01T06:39:49.517Z,991.36
2023-04-01T06:40:49.536Z,991.34
2023-04-01T06:41:49.754Z,991.36
2023-04-01T06:42:49.898Z,991.35
2023-04-01T06:43:49.622Z,991.41
2023-04-01T06:44:49.757Z,991.34
2023-04-01T06:46:49.710Z,991.40
2023-04-01T06:47:49.766Z,991.37
2023-04-01T06:48:49.758Z,991.39
2023-04-01T06:49:50.098Z,991.44
2023-04-01T06:50:49.835Z,991.42
2023-04-01T06:51:49.842Z,991.46
2023-04-01T06:52:49.881Z,991.39
2023-04-01T06:53:49.905Z,991.41
2023-04-01T06:55:50.027Z,991.44
2023-04-01T06:56:50.302Z,991.48
2023-04-01T06:57:50.018Z,991.49
2023-04-01T06:58:50.048Z,991.49
2023-04-01T06:59:50.085Z,991.44
2023-04-01T07:00:50.163Z,991.47
2023-04-01T07:01:50.170Z,991.54
2023-04-01T07:02:50.211Z,991.50
2023-04-01T07:03:50.501Z,991.51
2023-04-01T07:04:50.218Z,991.53
2023-04-01T07:05:50.249Z,991.57
2023-04-01T07:06:50.277Z,991.54
2023-04-01T07:07:50.763Z,991.53
2023-04-01T07:08:50.336Z,991.61
2023-04-01T07:09:50.363Z,991.58
2023-04-01T07:10:50.865Z,991.62
2023-04-01T07:11:50.450Z,991.66
2023-04-01T07:12:50.472Z,991.58
2023-04-01T07:13:50.485Z,991.60
2023-04-01T07:14:50.514Z,991.63
2023-04-01T07:15:50.552Z,991.64
2023-04-01T07:16:50.627Z,991.57
2023-04-01T07:17:50.897Z,991.67
2023-04-01T07:18:50.635Z,991.64
2023-04-01T07:19:50.646Z,991.69
2023-04-01T07:20:50.671Z,991.71
2023-04-01T07:21:50.727Z,991.74
2023-04-01T07:22:50.733Z,991.78
2023-04-01T07:23:50.766Z,991.84
2023-04-01T07:24:51.140Z,991.79
2023-04-01T07:25:50.821Z,991.78
2023-04-01T07:26:50.858Z,991.79
2023-04-01T07:27:50.893Z,991.79
2023-04-01T07:28:50.948Z,991.80
2023-04-01T07:29:50.936Z,991.82
2023-04-01T07:30:50.996Z,991.90
2023-04-01T07:31:51.847Z,991.86
2023-04-01T07:33:51.233Z,991.88
2023-04-01T07:34:51.153Z,991.86
2023-04-01T07:35:51.176Z,991.88
2023-04-01T07:36:51.172Z,991.96
2023-04-01T07:37:51.340Z,991.94
2023-04-01T07:38:51.519Z,991.94
2023-04-01T07:39:51.242Z,991.94
2023-04-01T07:40:51.258Z,992.01
2023-04-01T07:41:51.287Z,991.95
2023-04-01T07:42:51.368Z,992.06
2023-04-01T07:43:51.376Z,991.99
2023-04-01T07:44:51.379Z,992.08
2023-04-01T07:45:51.856Z,992.07
2023-04-01T09:29:27.943Z,993.19
2023-04-01T09:30:27.929Z,993.13
2023-04-01T09:31:28.015Z,993.12
2023-04-01T09:32:28.076Z,993.18
2023-04-01T09:33:28.024Z,993.22
2023-04-01T09:34:28.053Z,993.25
2023-04-01T09:35:28.379Z,993.21
2023-04-01T09:36:28.097Z,993.32
2023-04-01T09:37:28.152Z,993.26
2023-04-01T09:38:28.257Z,993.35
2023-04-01T09:39:28.184Z,993.35
2023-04-01T09:40:28.217Z,993.31
2023-04-01T09:41:28.556Z,993.32
2023-04-01T09:42:28.267Z,993.39
2023-04-01T09:43:28.322Z,993.30
2023-04-01T09:44:28.326Z,993.36
2023-04-01T09:45:28.377Z,993.36
2023-04-01T09:46:28.493Z,993.28
2023-04-01T09:47:28.764Z,993.38
2023-04-01T09:48:28.674Z,993.41
2023-04-01T09:49:28.472Z,993.39
2023-04-01T09:50:28.539Z,993.43
2023-04-01T09:51:28.521Z,993.44
2023-04-01T09:53:28.732Z,993.48
2023-04-01T09:54:28.986Z,993.48
2023-04-01T09:55:28.655Z,993.53
2023-04-01T09:56:29.027Z,993.58
2023-04-01T09:57:28.811Z,993.54
2023-04-01T09:58:28.776Z,993.56
2023-04-01T10:00:29.085Z,993.58
2023-04-01T10:01:28.900Z,993.58
2023-04-01T10:02:28.857Z,993.59
2023-04-01T10:03:29.802Z,993.60
2023-04-01T10:04:29.182Z,993.57
2023-04-01T10:05:28.999Z,993.61
2023-04-01T10:06:28.943Z,993.63
2023-04-01T10:07:29.276Z,993.68
2023-04-01T10:09:29.033Z,993.62
2023-04-01T10:10:29.190Z,993.72
2023-04-01T10:12:29.175Z,993.69
2023-04-01T10:14:29.473Z,993.71
2023-04-01T10:15:29.306Z,993.75
2023-04-01T10:16:29.294Z,993.77
2023-04-01T10:17:29.307Z,993.74
2023-04-01T10:18:29.279Z,993.84
2023-04-01T10:19:29.315Z,993.81
2023-04-01T10:20:29.452Z,993.83
2023-04-01T10:21:29.728Z,993.84
2023-04-01T10:22:29.398Z,993.81
2023-04-01T10:23:29.473Z,993.88
2023-04-01T10:24:29.454Z,993.80
2023-04-01T10:26:29.570Z,993.88
2023-04-01T10:27:29.536Z,993.86
2023-04-01T10:28:29.906Z,993.92
2023-04-01T10:29:29.595Z,993.91
2023-04-01T10:30:29.619Z,993.92
2023-04-01T10:31:29.685Z,993.91
2023-04-01T10:32:29.693Z,993.91
2023-04-01T10:33:29.733Z,993.96
2023-04-01T10:34:29.753Z,993.96
2023-04-01T10:35:30.093Z,993.97
2023-04-01T10:36:29.822Z,993.93
2023-04-01T10:37:29.822Z,993.98
2023-04-01T10:38:30.003Z,994.00
2023-04-01T10:39:29.878Z,993.93
2023-04-01T10:40:29.928Z,993.90
2023-04-01T10:41:29.934Z,993.96
2023-04-01T10:42:30.067Z,993.88
2023-04-01T10:43:29.997Z,993.87
2023-04-01T10:44:30.026Z,993.99
2023-04-01T10:45:30.294Z,993.92
2023-04-01T10:46:30.117Z,993.89
2023-04-01T10:48:30.465Z,993.92
2023-04-01T10:49:30.179Z,993.96
2023-04-01T10:50:30.189Z,993.93
2023-04-01T10:51:30.229Z,993.93
2023-04-01T10:52:30.285Z,994.04
2023-04-01T10:53:30.286Z,994.00
2023-04-01T10:54:30.669Z,993.95
2023-04-01T10:55:30.381Z,993.96
2023-04-01T10:56:30.367Z,994.00
2023-04-01T10:57:30.614Z,994.03
2023-04-01T10:58:30.423Z,994.01
2023-04-01T10:59:30.449Z,994.06
2023-04-01T11:00:30.800Z,994.06
2023-04-01T11:02:30.613Z,994.10
2023-04-01T11:04:30.590Z,994.08
2023-04-01T11:05:30.632Z,994.05
2023-04-01T11:06:30.651Z,994.05
2023-04-01T11:08:30.908Z,994.05
2023-04-01T11:09:30.736Z,994.09
2023-04-01T11:10:30.765Z,994.08
2023-04-01T11:11:30.831Z,994.15
2023-04-01T11:12:30.920Z,994.13
2023-04-01T11:13:31.164Z,994.12
2023-04-01T11:14:30.877Z,994.24
2023-04-01T11:15:31.001Z,994.23
2023-04-01T11:16:31.030Z,994.15
2023-04-01T11:17:30.984Z,994.22
2023-04-01T11:18:31.004Z,994.16
2023-04-01T11:19:31.071Z,994.20
2023-04-01T11:20:31.477Z,994.24
2023-04-01T11:21:31.101Z,994.16
2023-04-01T11:22:31.112Z,994.20
2023-04-01T11:23:31.607Z,994.26
2023-04-01T11:24:31.160Z,994.23
2023-04-01T11:25:31.708Z,994.24
2023-04-01T11:26:31.214Z,994.23
2023-04-01T11:27:31.545Z,994.28
2023-04-01T11:28:31.277Z,994.34
2023-04-01T11:29:31.326Z,994.32
2023-04-01T11:30:31.715Z,994.35
2023-04-01T11:31:31.446Z,994.34
2023-04-01T11:32:31.418Z,994.40
2023-04-01T11:33:31.480Z,994.43
2023-04-01T11:34:31.793Z,994.43
2023-04-01T11:35:31.725Z,994.62
2023-04-01T11:36:31.569Z,994.49
2023-04-01T11:37:31.565Z,994.43
2023-04-01T11:38:31.561Z,994.40
2023-04-01T11:39:31.643Z,994.45
2023-04-01T11:40:31.719Z,994.56
2023-04-01T11:41:32.061Z,994.51
2023-04-01T11:42:31.721Z,994.54
2023-04-01T11:43:33.817Z,994.47
2023-04-01T11:44:31.739Z,994.49
2023-04-01T11:45:32.060Z,994.60
2023-04-01T11:46:31.799Z,994.53
2023-04-01T11:47:31.877Z,994.49
2023-04-01T11:48:32.145Z,994.57
2023-04-01T11:49:31.884Z,994.51
2023-04-01T11:51:31.933Z,994.56
2023-04-01T11:52:31.966Z,994.62
2023-04-01T11:54:32.386Z,994.70
2023-04-01T11:55:32.256Z,994.59
2023-04-01T11:56:32.190Z,994.68
2023-04-01T11:57:32.261Z,994.66
2023-04-01T11:58:32.144Z,994.74
2023-04-01T11:59:32.184Z,994.76
2023-04-01T12:00:32.216Z,994.76
2023-04-01T12:01:32.238Z,994.93
2023-04-01T12:02:32.332Z,994.85
2023-04-01T12:03:32.417Z,994.86
2023-04-01T12:04:32.322Z,994.80
2023-04-01T12:05:32.590Z,994.82
2023-04-01T12:06:32.832Z,994.85
2023-04-01T12:07:32.402Z,994.95
2023-04-01T12:08:32.427Z,994.75
2023-04-01T12:09:32.475Z,994.76
2023-04-01T12:10:32.575Z,994.84
2023-04-01T12:12:32.898Z,994.80
2023-04-01T12:13:32.609Z,994.88
2023-04-01T12:14:32.609Z,994.76
2023-04-01T12:16:32.812Z,994.78
2023-04-01T12:17:32.718Z,994.77
2023-04-01T12:18:32.720Z,994.85
2023-04-01T12:19:33.081Z,994.82
2023-04-01T12:20:32.778Z,994.84
2023-04-01T12:21:32.809Z,994.90
2023-04-01T12:22:33.979Z,994.91
2023-04-01T12:23:32.880Z,994.89
2023-04-01T12:24:32.903Z,995.08
2023-04-01T12:25:33.117Z,995.00
2023-04-01T12:26:33.397Z,994.97
2023-04-01T12:27:33.014Z,994.92
2023-04-01T12:28:33.008Z,994.94
2023-04-01T12:29:33.044Z,994.96
2023-04-01T12:30:33.081Z,994.90
2023-04-01T12:31:33.172Z,994.96
2023-04-01T12:32:33.158Z,994.94
2023-04-01T12:33:33.501Z,995.04
2023-04-01T12:34:33.193Z,995.02
2023-04-01T12:35:33.507Z,994.95
2023-04-01T12:36:33.319Z,994.97
2023-04-01T12:37:33.278Z,995.02
2023-04-01T12:38:33.304Z,995.02
2023-04-01T12:39:33.393Z,994.97
2023-04-01T12:40:34.003Z,995.03
2023-04-01T12:41:33.405Z,995.07
2023-04-01T12:42:33.442Z,995.17
2023-04-01T12:43:33.453Z,995.17
2023-04-01T12:44:33.471Z,995.11
2023-04-01T12:45:33.674Z,995.07
2023-04-01T12:46:33.646Z,995.20
2023-04-01T12:47:33.913Z,995.10
2023-04-01T12:48:33.604Z,995.15
2023-04-01T12:49:33.627Z,995.11
2023-04-01T12:50:33.677Z,995.24
2023-04-01T12:51:33.679Z,995.11
2023-04-01T12:52:33.720Z,995.13
2023-04-01T12:53:33.803Z,995.12
2023-04-01T12:54:34.089Z,995.14
2023-04-01T12:55:33.997Z,995.19
2023-04-01T12:56:33.884Z,995.19
2023-04-01T12:57:33.993Z,995.17
2023-04-01T12:58:33.907Z,995.24
2023-04-01T12:59:33.966Z,995.20
2023-04-01T13:01:34.332Z,995.17
2023-04-01T13:02:34.094Z,995.14
2023-04-01T13:03:34.045Z,995.18
2023-04-01T13:04:34.063Z,995.25
2023-04-01T13:05:34.285Z,995.28
2023-04-01T13:06:34.128Z,995.27
2023-04-01T13:07:34.216Z,995.27
2023-04-01T13:08:34.187Z,995.30
2023-04-01T13:09:34.212Z,995.34
2023-04-01T13:10:34.565Z,995.32
2023-04-01T13:11:34.276Z,995.28
2023-04-01T13:12:35.088Z,995.24
2023-04-01T13:14:34.698Z,995.22
2023-04-01T13:15:34.439Z,995.29
2023-04-01T13:17:34.513Z,995.25
2023-04-01T13:18:34.475Z,995.31
2023-04-01T13:19:34.502Z,995.28
2023-04-01T13:20:35.019Z,995.32
2023-04-01T13:22:34.648Z,995.30
2023-04-01T13:23:34.646Z,995.26
2023-04-01T13:24:34.690Z,995.31
2023-04-01T13:25:34.772Z,995.35
2023-04-01T13:26:35.052Z,995.34
2023-04-01T13:27:34.800Z,995.36
2023-04-01T13:28:34.763Z,995.33
2023-04-01T13:29:34.801Z,995.37
2023-04-01T13:31:34.932Z,995.42
2023-04-01T13:33:34.931Z,995.41
2023-04-01T13:34:34.944Z,995.44
2023-04-01T13:35:35.034Z,995.45
2023-04-01T13:36:35.052Z,995.44
2023-04-01T13:37:36.179Z,995.50
2023-04-01T13:38:35.059Z,995.44
2023-04-01T13:39:35.381Z,995.49
2023-04-01T13:40:35.289Z,995.49
2023-04-01T13:42:35.177Z,995.51
2023-04-01T13:43:35.198Z,995.51
2023-04-01T13:44:35.316Z,995.53
2023-04-01T13:45:35.261Z,995.46
2023-04-01T13:46:35.718Z,995.48
2023-04-01T13:47:35.495Z,995.50
2023-04-01T13:48:35.341Z,995.51
2023-04-01T13:49:35.368Z,995.53
2023-04-01T13:50:35.762Z,995.55
2023-04-01T13:52:35.770Z,995.59
2023-04-01T13:53:35.515Z,995.59
2023-04-01T13:54:35.519Z,995.58
2023-04-01T13:55:35.600Z,995.60
2023-04-01T13:56:35.589Z,995.62
2023-04-01T13:57:35.682Z,995.60
2023-04-01T13:58:35.627Z,995.64
2023-04-01T13:59:36.243Z,995.67
2023-04-01T14:00:36.046Z,995.63
2023-04-01T14:01:35.895Z,995.66
2023-04-01T14:03:35.927Z,995.70
2023-04-01T14:04:35.880Z,995.65
2023-04-01T14:05:43.424Z,995.74
2023-04-01T14:06:36.155Z,995.73
2023-04-01T14:07:35.943Z,995.72
2023-04-01T14:09:35.970Z,995.76
2023-04-01T14:10:36.020Z,995.82
2023-04-01T14:11:35.998Z,995.77
2023-04-01T14:12:36.027Z,995.78
2023-04-01T14:13:36.568Z,995.82
2023-04-01T14:14:36.097Z,995.82
2023-04-01T14:15:36.269Z,995.78
2023-04-01T14:16:36.193Z,995.90
2023-04-01T14:17:36.249Z,995.90
2023-04-01T14:18:37.453Z,995.90
2023-04-01T14:19:36.550Z,995.90
2023-04-01T14:20:36.272Z,995.91
2023-04-01T14:21:36.372Z,995.91
2023-04-01T14:22:36.341Z,995.86
2023-04-01T14:24:36.407Z,995.93
2023-04-01T14:25:37.906Z,995.94
2023-04-01T14:26:36.434Z,995.92
2023-04-01T14:27:36.511Z,995.89
2023-04-01T14:28:36.504Z,995.94
2023-04-01T14:29:36.522Z,996.01
2023-04-01T14:30:36.610Z,995.97
2023-04-01T14:31:37.038Z,995.95
2023-04-01T14:32:36.651Z,995.97
2023-04-01T14:33:36.649Z,995.95
2023-04-01T14:34:36.675Z,995.95
2023-04-01T14:35:37.040Z,995.97
2023-04-01T14:36:36.724Z,996.03
2023-04-01T14:37:37.128Z,995.99
2023-04-01T14:38:36.790Z,995.97
2023-04-01T14:39:36.830Z,996.04
2023-04-01T14:40:36.848Z,996.03
2023-04-01T14:41:36.971Z,996.05
2023-04-01T14:42:36.996Z,996.05
2023-04-01T14:43:38.718Z,996.08
2023-04-01T14:44:37.265Z,996.09
2023-04-01T14:45:37.185Z,996.10
2023-04-01T14:46:37.018Z,996.08
2023-04-01T14:47:37.108Z,996.12
2023-04-01T14:48:37.068Z,996.11
2023-04-01T14:49:37.095Z,996.15
2023-04-01T14:50:37.120Z,996.13
2023-04-01T14:51:37.549Z,996.12
2023-04-01T14:52:37.204Z,996.19
2023-04-01T14:53:37.214Z,996.22
2023-04-01T14:54:37.243Z,996.17